sensor_id;sensor_type;location;lat;lon;timestamp;temperature;humidity
25991;DHT22;13779;-33.886;151.198;2023-01-23T00:01:42;21.40;99.90
25991;DHT22;13779;-33.886;151.198;2023-01-23T00:04:12;21.50;99.90
25991;DHT22;13779;-33.886;151.198;2023-01-23T00:06:42;21.50;99.90
25991;DHT22;13779;-33.886;151.198;2023-01-23T00:09:12;21.50;99.90
25991;DHT22;13779;-33.886;151.198;2023-01-23T00:11:41;21.60;99.90
25991;DHT22;13779;-33.886;151.198;2023-01-23T00:14:11;21.60;99.90
25991;DHT22;13779;-33.886;151.198;2023-01-23T00:16:40;21.70;99.90
25991;DHT22;13779;-33.886;151.198;2023-01-23T00:19:10;21.70;99.90
25991;DHT22;13779;-33.886;151.198;2023-01-23T00:21:39;21.70;99.90
25991;DHT22;13779;-33.886;151.198;2023-01-23T00:24:09;21.80;99.90
25991;DHT22;13779;-33.886;151.198;2023-01-23T00:26:39;21.90;99.90
25991;DHT22;13779;-33.886;151.198;2023-01-23T00:29:09;21.90;99.90
25991;DHT22;13779;-33.886;151.198;2023-01-23T00:31:39;21.90;99.90
25991;DHT22;13779;-33.886;151.198;2023-01-23T00:34:12;21.80;99.90
25991;DHT22;13779;-33.886;151.198;2023-01-23T00:36:43;21.80;99.90
25991;DHT22;13779;-33.886;151.198;2023-01-23T00:39:21;21.80;99.90
25991;DHT22;13779;-33.886;151.198;2023-01-23T00:41:51;21.80;99.90
25991;DHT22;13779;-33.886;151.198;2023-01-23T00:44:21;21.80;99.90
25991;DHT22;13779;-33.886;151.198;2023-01-23T00:46:50;21.70;99.90
25991;DHT22;13779;-33.886;151.198;2023-01-23T00:49:19;21.70;99.90
25991;DHT22;13779;-33.886;151.198;2023-01-23T00:51:50;21.70;99.90
25991;DHT22;13779;-33.886;151.198;2023-01-23T00:54:22;21.70;99.90
25991;DHT22;13779;-33.886;151.198;2023-01-23T00:56:54;21.70;99.90
25991;DHT22;13779;-33.886;151.198;2023-01-23T00:59:24;21.70;99.90
25991;DHT22;13779;-33.886;151.198;2023-01-23T01:01:54;21.60;99.90
25991;DHT22;13779;-33.886;151.198;2023-01-23T01:04:24;21.60;99.90
25991;DHT22;13779;-33.886;151.198;2023-01-23T01:06:54;21.60;99.90
25991;DHT22;13779;-33.886;151.198;2023-01-23T01:09:23;21.60;99.90
25991;DHT22;13779;-33.886;151.198;2023-01-23T01:11:53;21.60;99.90
25991;DHT22;13779;-33.886;151.198;2023-01-23T01:14:23;21.60;99.90
25991;DHT22;13779;-33.886;151.198;2023-01-23T01:16:53;21.60;99.90
25991;DHT22;13779;-33.886;151.198;2023-01-23T01:19:23;21.60;99.90
25991;DHT22;13779;-33.886;151.198;2023-01-23T01:21:52;21.60;99.90
25991;DHT22;13779;-33.886;151.198;2023-01-23T01:24:22;21.60;99.90
25991;DHT22;13779;-33.886;151.198;2023-01-23T01:26:51;21.60;99.90
25991;DHT22;13779;-33.886;151.198;2023-01-23T01:29:21;21.60;99.90
25991;DHT22;13779;-33.886;151.198;2023-01-23T01:31:51;21.60;99.90
25991;DHT22;13779;-33.886;151.198;2023-01-23T01:34:20;21.60;99.90
25991;DHT22;13779;-33.886;151.198;2023-01-23T01:36:49;21.60;99.90
25991;DHT22;13779;-33.886;151.198;2023-01-23T01:39:19;21.60;99.90
25991;DHT22;13779;-33.886;151.198;2023-01-23T01:41:48;21.60;99.90
25991;DHT22;13779;-33.886;151.198;2023-01-23T01:44:19;21.50;99.90
25991;DHT22;13779;-33.886;151.198;2023-01-23T01:46:49;21.50;99.90
25991;DHT22;13779;-33.886;151.198;2023-01-23T01:49:22;21.50;99.90
25991;DHT22;13779;-33.886;151.198;2023-01-23T01:54:33;21.50;99.90
25991;DHT22;13779;-33.886;151.198;2023-01-23T01:59:45;21.50;99.90
25991;DHT22;13779;-33.886;151.198;2023-01-23T02:02:26;21.50;99.90
25991;DHT22;13779;-33.886;151.198;2023-01-23T02:05:00;21.50;99.90
25991;DHT22;13779;-33.886;151.198;2023-01-23T02:10:09;21.60;99.90
25991;DHT22;13779;-33.886;151.198;2023-01-23T02:12:39;21.60;99.90
25991;DHT22;13779;-33.886;151.198;2023-01-23T02:15:09;21.60;99.90
25991;DHT22;13779;-33.886;151.198;2023-01-23T02:17:38;21.70;99.90
25991;DHT22;13779;-33.886;151.198;2023-01-23T02:28:10;21.90;99.90
25991;DHT22;13779;-33.886;151.198;2023-01-23T02:30:40;21.90;99.90
25991;DHT22;13779;-33.886;151.198;2023-01-23T02:33:39;21.90;99.90
25991;DHT22;13779;-33.886;151.198;2023-01-23T02:36:00;22.00;99.90
25991;DHT22;13779;-33.886;151.198;2023-01-23T02:38:31;22.10;99.90
25991;DHT22;13779;-33.886;151.198;2023-01-23T02:41:03;22.20;99.90
25991;DHT22;13779;-33.886;151.198;2023-01-23T02:43:34;22.30;99.90
25991;DHT22;13779;-33.886;151.198;2023-01-23T02:46:07;22.30;99.90
25991;DHT22;13779;-33.886;151.198;2023-01-23T02:48:38;22.30;99.90
25991;DHT22;13779;-33.886;151.198;2023-01-23T02:51:12;22.20;99.90
25991;DHT22;13779;-33.886;151.198;2023-01-23T02:53:42;22.30;99.90
25991;DHT22;13779;-33.886;151.198;2023-01-23T02:56:11;22.30;99.90
25991;DHT22;13779;-33.886;151.198;2023-01-23T02:58:41;22.40;99.90
25991;DHT22;13779;-33.886;151.198;2023-01-23T03:01:29;22.40;99.90
25991;DHT22;13779;-33.886;151.198;2023-01-23T03:03:59;22.40;99.90
25991;DHT22;13779;-33.886;151.198;2023-01-23T03:06:32;22.40;99.90
25991;DHT22;13779;-33.886;151.198;2023-01-23T03:09:06;22.50;99.90
25991;DHT22;13779;-33.886;151.198;2023-01-23T03:11:37;22.50;99.90
25991;DHT22;13779;-33.886;151.198;2023-01-23T03:14:08;22.50;99.90
25991;DHT22;13779;-33.886;151.198;2023-01-23T03:16:37;22.50;99.90
25991;DHT22;13779;-33.886;151.198;2023-01-23T03:19:08;22.50;99.90
25991;DHT22;13779;-33.886;151.198;2023-01-23T03:21:38;22.60;99.90
25991;DHT22;13779;-33.886;151.198;2023-01-23T03:24:09;22.70;99.90
25991;DHT22;13779;-33.886;151.198;2023-01-23T03:26:39;22.60;99.90
25991;DHT22;13779;-33.886;151.198;2023-01-23T03:29:14;22.70;99.90
25991;DHT22;13779;-33.886;151.198;2023-01-23T03:32:04;22.90;99.90
25991;DHT22;13779;-33.886;151.198;2023-01-23T03:34:34;23.00;99.90
25991;DHT22;13779;-33.886;151.198;2023-01-23T03:37:04;23.20;99.90
25991;DHT22;13779;-33.886;151.198;2023-01-23T03:39:35;23.00;99.90
25991;DHT22;13779;-33.886;151.198;2023-01-23T03:42:22;23.00;99.90
25991;DHT22;13779;-33.886;151.198;2023-01-23T03:44:52;23.00;99.90
25991;DHT22;13779;-33.886;151.198;2023-01-23T03:47:21;23.00;99.90
25991;DHT22;13779;-33.886;151.198;2023-01-23T03:49:51;23.10;99.90
25991;DHT22;13779;-33.886;151.198;2023-01-23T03:52:21;23.20;99.90
25991;DHT22;13779;-33.886;151.198;2023-01-23T03:54:50;23.30;99.90
25991;DHT22;13779;-33.886;151.198;2023-01-23T03:57:20;23.40;99.90
25991;DHT22;13779;-33.886;151.198;2023-01-23T03:59:49;23.30;99.90
25991;DHT22;13779;-33.886;151.198;2023-01-23T04:02:19;23.20;99.90
25991;DHT22;13779;-33.886;151.198;2023-01-23T04:04:48;23.30;99.90
25991;DHT22;13779;-33.886;151.198;2023-01-23T04:07:18;23.40;99.90
25991;DHT22;13779;-33.886;151.198;2023-01-23T04:09:47;23.40;99.90
25991;DHT22;13779;-33.886;151.198;2023-01-23T04:12:17;23.50;99.90
25991;DHT22;13779;-33.886;151.198;2023-01-23T04:14:46;23.60;99.90
25991;DHT22;13779;-33.886;151.198;2023-01-23T04:17:16;23.70;99.90
25991;DHT22;13779;-33.886;151.198;2023-01-23T04:19:45;23.70;99.90
25991;DHT22;13779;-33.886;151.198;2023-01-23T04:22:15;23.80;99.90
25991;DHT22;13779;-33.886;151.198;2023-01-23T04:24:44;23.80;99.90
25991;DHT22;13779;-33.886;151.198;2023-01-23T04:27:14;24.00;99.90
25991;DHT22;13779;-33.886;151.198;2023-01-23T04:29:44;24.00;99.90
25991;DHT22;13779;-33.886;151.198;2023-01-23T04:32:15;23.80;99.90
25991;DHT22;13779;-33.886;151.198;2023-01-23T04:34:45;23.80;99.90
25991;DHT22;13779;-33.886;151.198;2023-01-23T04:37:14;23.90;99.90
25991;DHT22;13779;-33.886;151.198;2023-01-23T04:39:44;23.90;99.90
25991;DHT22;13779;-33.886;151.198;2023-01-23T04:42:13;24.10;99.90
25991;DHT22;13779;-33.886;151.198;2023-01-23T04:44:43;24.10;99.90
25991;DHT22;13779;-33.886;151.198;2023-01-23T04:47:12;24.10;99.90
25991;DHT22;13779;-33.886;151.198;2023-01-23T04:49:42;24.00;99.90
25991;DHT22;13779;-33.886;151.198;2023-01-23T04:52:11;24.00;99.90
25991;DHT22;13779;-33.886;151.198;2023-01-23T04:54:40;24.00;99.90
25991;DHT22;13779;-33.886;151.198;2023-01-23T04:57:10;23.70;99.90
25991;DHT22;13779;-33.886;151.198;2023-01-23T04:59:40;23.60;99.90
25991;DHT22;13779;-33.886;151.198;2023-01-23T05:02:09;23.50;99.90
25991;DHT22;13779;-33.886;151.198;2023-01-23T05:04:39;23.40;99.90
25991;DHT22;13779;-33.886;151.198;2023-01-23T05:07:12;23.30;99.90
25991;DHT22;13779;-33.886;151.198;2023-01-23T05:09:42;23.30;99.90
25991;DHT22;13779;-33.886;151.198;2023-01-23T05:12:14;23.40;99.90
25991;DHT22;13779;-33.886;151.198;2023-01-23T05:14:44;23.30;99.90
25991;DHT22;13779;-33.886;151.198;2023-01-23T05:17:13;23.30;99.90
25991;DHT22;13779;-33.886;151.198;2023-01-23T05:19:42;23.30;99.90
25991;DHT22;13779;-33.886;151.198;2023-01-23T05:22:12;23.50;99.90
25991;DHT22;13779;-33.886;151.198;2023-01-23T05:24:42;23.60;99.90
25991;DHT22;13779;-33.886;151.198;2023-01-23T05:27:11;23.70;99.90
25991;DHT22;13779;-33.886;151.198;2023-01-23T05:29:42;23.70;99.90
25991;DHT22;13779;-33.886;151.198;2023-01-23T05:32:12;23.60;99.90
25991;DHT22;13779;-33.886;151.198;2023-01-23T05:34:42;23.60;99.90
25991;DHT22;13779;-33.886;151.198;2023-01-23T05:37:12;23.70;99.90
25991;DHT22;13779;-33.886;151.198;2023-01-23T05:39:42;23.80;99.90
25991;DHT22;13779;-33.886;151.198;2023-01-23T05:42:11;23.90;99.90
25991;DHT22;13779;-33.886;151.198;2023-01-23T05:44:41;23.90;99.90
25991;DHT22;13779;-33.886;151.198;2023-01-23T05:47:10;23.70;99.90
25991;DHT22;13779;-33.886;151.198;2023-01-23T05:49:41;23.80;99.90
25991;DHT22;13779;-33.886;151.198;2023-01-23T05:52:13;23.70;99.90
25991;DHT22;13779;-33.886;151.198;2023-01-23T05:54:43;23.70;99.90
25991;DHT22;13779;-33.886;151.198;2023-01-23T05:57:12;23.70;99.90
25991;DHT22;13779;-33.886;151.198;2023-01-23T05:59:42;23.80;99.90
25991;DHT22;13779;-33.886;151.198;2023-01-23T06:02:12;23.70;99.90
25991;DHT22;13779;-33.886;151.198;2023-01-23T06:04:41;23.70;99.90
25991;DHT22;13779;-33.886;151.198;2023-01-23T06:07:14;23.70;99.90
25991;DHT22;13779;-33.886;151.198;2023-01-23T06:09:47;23.70;99.90
25991;DHT22;13779;-33.886;151.198;2023-01-23T06:12:16;23.80;99.90
25991;DHT22;13779;-33.886;151.198;2023-01-23T06:14:46;23.70;99.90
25991;DHT22;13779;-33.886;151.198;2023-01-23T06:17:19;23.50;99.90
25991;DHT22;13779;-33.886;151.198;2023-01-23T06:19:48;23.40;99.90
25991;DHT22;13779;-33.886;151.198;2023-01-23T06:22:18;23.30;99.90
25991;DHT22;13779;-33.886;151.198;2023-01-23T06:24:47;23.20;99.90
25991;DHT22;13779;-33.886;151.198;2023-01-23T06:27:17;23.20;99.90
25991;DHT22;13779;-33.886;151.198;2023-01-23T06:29:47;23.00;99.90
25991;DHT22;13779;-33.886;151.198;2023-01-23T06:32:17;22.90;99.90
25991;DHT22;13779;-33.886;151.198;2023-01-23T06:34:46;22.80;99.90
25991;DHT22;13779;-33.886;151.198;2023-01-23T06:37:16;22.80;99.90
25991;DHT22;13779;-33.886;151.198;2023-01-23T06:39:45;22.70;99.90
25991;DHT22;13779;-33.886;151.198;2023-01-23T06:42:14;22.70;99.90
25991;DHT22;13779;-33.886;151.198;2023-01-23T06:44:44;22.70;99.90
25991;DHT22;13779;-33.886;151.198;2023-01-23T06:47:14;22.70;99.90
25991;DHT22;13779;-33.886;151.198;2023-01-23T06:49:44;22.60;99.90
25991;DHT22;13779;-33.886;151.198;2023-01-23T06:52:13;22.60;99.90
25991;DHT22;13779;-33.886;151.198;2023-01-23T06:54:43;22.60;99.90
25991;DHT22;13779;-33.886;151.198;2023-01-23T06:57:12;22.60;99.90
25991;DHT22;13779;-33.886;151.198;2023-01-23T06:59:42;22.60;99.90
25991;DHT22;13779;-33.886;151.198;2023-01-23T07:02:12;22.60;99.90
25991;DHT22;13779;-33.886;151.198;2023-01-23T07:04:44;22.60;99.90
25991;DHT22;13779;-33.886;151.198;2023-01-23T07:07:14;22.60;99.90
25991;DHT22;13779;-33.886;151.198;2023-01-23T07:09:43;22.60;99.90
25991;DHT22;13779;-33.886;151.198;2023-01-23T07:12:14;22.70;99.90
25991;DHT22;13779;-33.886;151.198;2023-01-23T07:14:44;22.60;99.90
25991;DHT22;13779;-33.886;151.198;2023-01-23T07:17:13;22.70;99.90
25991;DHT22;13779;-33.886;151.198;2023-01-23T07:19:43;22.70;99.90
25991;DHT22;13779;-33.886;151.198;2023-01-23T07:22:15;22.70;99.90
25991;DHT22;13779;-33.886;151.198;2023-01-23T07:24:45;22.70;99.90
25991;DHT22;13779;-33.886;151.198;2023-01-23T07:27:15;22.80;99.90
25991;DHT22;13779;-33.886;151.198;2023-01-23T07:29:46;22.70;99.90
25991;DHT22;13779;-33.886;151.198;2023-01-23T07:32:15;22.70;99.90
25991;DHT22;13779;-33.886;151.198;2023-01-23T07:34:45;22.80;99.90
25991;DHT22;13779;-33.886;151.198;2023-01-23T07:37:25;22.80;99.90
25991;DHT22;13779;-33.886;151.198;2023-01-23T07:39:57;22.70;99.90
25991;DHT22;13779;-33.886;151.198;2023-01-23T07:42:27;22.70;99.90
25991;DHT22;13779;-33.886;151.198;2023-01-23T07:44:56;22.70;99.90
25991;DHT22;13779;-33.886;151.198;2023-01-23T07:47:26;22.70;99.90
25991;DHT22;13779;-33.886;151.198;2023-01-23T07:49:56;22.60;99.90
25991;DHT22;13779;-33.886;151.198;2023-01-23T07:52:25;22.70;99.90
25991;DHT22;13779;-33.886;151.198;2023-01-23T07:54:57;22.70;99.90
25991;DHT22;13779;-33.886;151.198;2023-01-23T07:57:27;22.70;99.90
25991;DHT22;13779;-33.886;151.198;2023-01-23T07:59:57;22.60;99.90
25991;DHT22;13779;-33.886;151.198;2023-01-23T08:02:26;22.70;99.90
25991;DHT22;13779;-33.886;151.198;2023-01-23T08:04:55;22.70;99.90
25991;DHT22;13779;-33.886;151.198;2023-01-23T08:07:25;22.70;99.90
25991;DHT22;13779;-33.886;151.198;2023-01-23T08:09:55;22.70;99.90
25991;DHT22;13779;-33.886;151.198;2023-01-23T08:12:24;22.60;99.90
25991;DHT22;13779;-33.886;151.198;2023-01-23T08:14:54;22.60;99.90
25991;DHT22;13779;-33.886;151.198;2023-01-23T08:17:23;22.60;99.90
25991;DHT22;13779;-33.886;151.198;2023-01-23T08:19:52;22.60;99.90
25991;DHT22;13779;-33.886;151.198;2023-01-23T08:22:22;22.60;99.90
25991;DHT22;13779;-33.886;151.198;2023-01-23T08:24:52;22.60;99.90
25991;DHT22;13779;-33.886;151.198;2023-01-23T08:27:21;22.60;99.90
25991;DHT22;13779;-33.886;151.198;2023-01-23T08:29:51;22.50;99.90
25991;DHT22;13779;-33.886;151.198;2023-01-23T08:32:21;22.50;99.90
25991;DHT22;13779;-33.886;151.198;2023-01-23T08:34:50;22.50;99.90
25991;DHT22;13779;-33.886;151.198;2023-01-23T08:37:20;22.50;99.90
25991;DHT22;13779;-33.886;151.198;2023-01-23T08:39:49;22.50;99.90
25991;DHT22;13779;-33.886;151.198;2023-01-23T08:42:19;22.50;99.90
25991;DHT22;13779;-33.886;151.198;2023-01-23T08:44:49;22.40;99.90
25991;DHT22;13779;-33.886;151.198;2023-01-23T08:47:18;22.40;99.90
25991;DHT22;13779;-33.886;151.198;2023-01-23T08:49:48;22.30;99.90
25991;DHT22;13779;-33.886;151.198;2023-01-23T08:52:17;22.40;99.90
25991;DHT22;13779;-33.886;151.198;2023-01-23T08:54:46;22.40;99.90
25991;DHT22;13779;-33.886;151.198;2023-01-23T08:57:16;22.30;99.90
25991;DHT22;13779;-33.886;151.198;2023-01-23T08:59:45;22.30;99.90
25991;DHT22;13779;-33.886;151.198;2023-01-23T09:02:15;22.30;99.90
25991;DHT22;13779;-33.886;151.198;2023-01-23T09:04:49;22.20;99.90
25991;DHT22;13779;-33.886;151.198;2023-01-23T09:07:19;22.20;99.90
25991;DHT22;13779;-33.886;151.198;2023-01-23T09:09:48;22.20;99.90
25991;DHT22;13779;-33.886;151.198;2023-01-23T09:12:18;22.20;99.90
25991;DHT22;13779;-33.886;151.198;2023-01-23T09:14:47;22.20;99.90
25991;DHT22;13779;-33.886;151.198;2023-01-23T09:17:17;22.20;99.90
25991;DHT22;13779;-33.886;151.198;2023-01-23T09:19:49;22.20;99.90
25991;DHT22;13779;-33.886;151.198;2023-01-23T09:22:18;22.10;99.90
25991;DHT22;13779;-33.886;151.198;2023-01-23T09:24:48;22.20;99.90
25991;DHT22;13779;-33.886;151.198;2023-01-23T09:27:19;22.10;99.90
25991;DHT22;13779;-33.886;151.198;2023-01-23T09:29:49;22.10;99.90
25991;DHT22;13779;-33.886;151.198;2023-01-23T09:32:19;22.10;99.90
25991;DHT22;13779;-33.886;151.198;2023-01-23T09:34:48;22.00;99.90
25991;DHT22;13779;-33.886;151.198;2023-01-23T09:37:18;22.10;99.90
25991;DHT22;13779;-33.886;151.198;2023-01-23T09:39:47;22.10;99.90
25991;DHT22;13779;-33.886;151.198;2023-01-23T09:42:26;22.10;99.90
25991;DHT22;13779;-33.886;151.198;2023-01-23T09:45:02;22.00;99.90
25991;DHT22;13779;-33.886;151.198;2023-01-23T09:47:35;22.00;99.90
25991;DHT22;13779;-33.886;151.198;2023-01-23T09:50:08;22.00;99.90
25991;DHT22;13779;-33.886;151.198;2023-01-23T09:52:48;22.00;99.90
25991;DHT22;13779;-33.886;151.198;2023-01-23T09:58:21;22.00;99.90
25991;DHT22;13779;-33.886;151.198;2023-01-23T10:00:52;22.00;99.90
25991;DHT22;13779;-33.886;151.198;2023-01-23T10:03:22;22.00;99.90
25991;DHT22;13779;-33.886;151.198;2023-01-23T10:24:38;22.00;99.90
25991;DHT22;13779;-33.886;151.198;2023-01-23T10:30:19;21.90;99.90
25991;DHT22;13779;-33.886;151.198;2023-01-23T10:32:39;21.90;99.90
25991;DHT22;13779;-33.886;151.198;2023-01-23T10:35:16;21.90;99.90
25991;DHT22;13779;-33.886;151.198;2023-01-23T10:37:49;21.90;99.90
25991;DHT22;13779;-33.886;151.198;2023-01-23T10:40:21;21.80;99.90
25991;DHT22;13779;-33.886;151.198;2023-01-23T10:43:18;21.80;99.90
25991;DHT22;13779;-33.886;151.198;2023-01-23T10:45:48;21.80;99.90
25991;DHT22;13779;-33.886;151.198;2023-01-23T10:48:28;21.80;99.90
25991;DHT22;13779;-33.886;151.198;2023-01-23T10:50:58;21.80;99.90
25991;DHT22;13779;-33.886;151.198;2023-01-23T10:53:28;21.80;99.90
25991;DHT22;13779;-33.886;151.198;2023-01-23T10:55:58;21.80;99.90
25991;DHT22;13779;-33.886;151.198;2023-01-23T11:00:58;21.80;99.90
25991;DHT22;13779;-33.886;151.198;2023-01-23T11:06:02;21.80;99.90
25991;DHT22;13779;-33.886;151.198;2023-01-23T11:08:39;21.80;99.90
25991;DHT22;13779;-33.886;151.198;2023-01-23T11:13:45;21.60;99.90
25991;DHT22;13779;-33.886;151.198;2023-01-23T11:16:19;21.60;99.90
25991;DHT22;13779;-33.886;151.198;2023-01-23T11:18:54;21.60;99.90
25991;DHT22;13779;-33.886;151.198;2023-01-23T11:21:28;21.60;99.90
25991;DHT22;13779;-33.886;151.198;2023-01-23T11:24:08;21.60;99.90
25991;DHT22;13779;-33.886;151.198;2023-01-23T11:26:38;21.60;99.90
25991;DHT22;13779;-33.886;151.198;2023-01-23T11:29:28;21.60;99.90
25991;DHT22;13779;-33.886;151.198;2023-01-23T11:32:19;21.50;99.90
25991;DHT22;13779;-33.886;151.198;2023-01-23T11:34:49;21.50;99.90
25991;DHT22;13779;-33.886;151.198;2023-01-23T11:37:20;21.50;99.90
25991;DHT22;13779;-33.886;151.198;2023-01-23T11:39:55;21.40;99.90
25991;DHT22;13779;-33.886;151.198;2023-01-23T11:42:26;21.50;99.90
25991;DHT22;13779;-33.886;151.198;2023-01-23T11:44:58;21.40;99.90
25991;DHT22;13779;-33.886;151.198;2023-01-23T11:47:35;21.40;99.90
25991;DHT22;13779;-33.886;151.198;2023-01-23T11:58:30;21.40;99.90
25991;DHT22;13779;-33.886;151.198;2023-01-23T12:01:35;21.50;99.90
25991;DHT22;13779;-33.886;151.198;2023-01-23T12:09:20;21.40;99.90
25991;DHT22;13779;-33.886;151.198;2023-01-23T12:14:26;21.30;99.90
25991;DHT22;13779;-33.886;151.198;2023-01-23T12:17:00;21.30;99.90
25991;DHT22;13779;-33.886;151.198;2023-01-23T12:19:49;21.30;99.90
25991;DHT22;13779;-33.886;151.198;2023-01-23T12:27:46;21.30;99.90
25991;DHT22;13779;-33.886;151.198;2023-01-23T12:30:23;21.30;99.90
25991;DHT22;13779;-33.886;151.198;2023-01-23T12:38:38;21.40;99.90
25991;DHT22;13779;-33.886;151.198;2023-01-23T12:46:29;21.40;99.90
25991;DHT22;13779;-33.886;151.198;2023-01-23T12:51:51;21.40;99.90
25991;DHT22;13779;-33.886;151.198;2023-01-23T12:54:29;21.40;99.90
25991;DHT22;13779;-33.886;151.198;2023-01-23T12:57:00;21.40;99.90
25991;DHT22;13779;-33.886;151.198;2023-01-23T12:59:52;21.40;99.90
25991;DHT22;13779;-33.886;151.198;2023-01-23T13:05:13;21.30;99.90
25991;DHT22;13779;-33.886;151.198;2023-01-23T13:10:23;21.20;99.90
25991;DHT22;13779;-33.886;151.198;2023-01-23T13:12:54;21.10;99.90
25991;DHT22;13779;-33.886;151.198;2023-01-23T13:15:32;21.10;99.90
25991;DHT22;13779;-33.886;151.198;2023-01-23T13:18:18;21.10;99.90
25991;DHT22;13779;-33.886;151.198;2023-01-23T13:20:58;21.10;99.90
25991;DHT22;13779;-33.886;151.198;2023-01-23T13:23:46;21.10;99.90
25991;DHT22;13779;-33.886;151.198;2023-01-23T13:28:50;21.10;99.90
25991;DHT22;13779;-33.886;151.198;2023-01-23T13:33:53;21.10;99.90
25991;DHT22;13779;-33.886;151.198;2023-01-23T13:36:40;21.10;99.90
25991;DHT22;13779;-33.886;151.198;2023-01-23T13:41:46;20.90;99.90
25991;DHT22;13779;-33.886;151.198;2023-01-23T13:52:52;20.80;99.90
25991;DHT22;13779;-33.886;151.198;2023-01-23T13:55:53;20.70;99.90
25991;DHT22;13779;-33.886;151.198;2023-01-23T13:58:53;20.70;99.90
25991;DHT22;13779;-33.886;151.198;2023-01-23T14:01:38;20.70;99.90
25991;DHT22;13779;-33.886;151.198;2023-01-23T14:04:43;20.70;99.90
25991;DHT22;13779;-33.886;151.198;2023-01-23T14:07:43;20.80;99.90
25991;DHT22;13779;-33.886;151.198;2023-01-23T14:10:36;20.80;99.90
25991;DHT22;13779;-33.886;151.198;2023-01-23T14:13:18;20.80;99.90
25991;DHT22;13779;-33.886;151.198;2023-01-23T14:16:05;20.80;99.90
25991;DHT22;13779;-33.886;151.198;2023-01-23T14:18:54;20.90;99.90
25991;DHT22;13779;-33.886;151.198;2023-01-23T14:21:45;20.90;99.90
25991;DHT22;13779;-33.886;151.198;2023-01-23T14:27:33;20.90;99.90
25991;DHT22;13779;-33.886;151.198;2023-01-23T14:30:24;20.90;99.90
25991;DHT22;13779;-33.886;151.198;2023-01-23T14:32:57;20.90;99.90
25991;DHT22;13779;-33.886;151.198;2023-01-23T14:35:31;20.90;99.90
25991;DHT22;13779;-33.886;151.198;2023-01-23T14:38:04;20.90;99.90
25991;DHT22;13779;-33.886;151.198;2023-01-23T14:40:34;20.90;99.90
25991;DHT22;13779;-33.886;151.198;2023-01-23T14:43:17;20.90;99.90
25991;DHT22;13779;-33.886;151.198;2023-01-23T14:45:48;20.90;99.90
25991;DHT22;13779;-33.886;151.198;2023-01-23T14:48:20;20.90;99.90
25991;DHT22;13779;-33.886;151.198;2023-01-23T14:50:59;20.90;99.90
25991;DHT22;13779;-33.886;151.198;2023-01-23T14:53:29;20.90;99.90
25991;DHT22;13779;-33.886;151.198;2023-01-23T14:55:58;20.90;99.90
25991;DHT22;13779;-33.886;151.198;2023-01-23T14:58:29;20.80;99.90
25991;DHT22;13779;-33.886;151.198;2023-01-23T15:01:00;20.80;99.90
25991;DHT22;13779;-33.886;151.198;2023-01-23T15:03:37;20.70;99.90
25991;DHT22;13779;-33.886;151.198;2023-01-23T15:06:08;20.70;99.90
25991;DHT22;13779;-33.886;151.198;2023-01-23T15:08:39;20.70;99.90
25991;DHT22;13779;-33.886;151.198;2023-01-23T15:11:09;20.60;99.90
25991;DHT22;13779;-33.886;151.198;2023-01-23T15:13:41;20.50;99.90
25991;DHT22;13779;-33.886;151.198;2023-01-23T15:16:22;20.50;99.90
25991;DHT22;13779;-33.886;151.198;2023-01-23T15:18:54;20.50;99.90
25991;DHT22;13779;-33.886;151.198;2023-01-23T15:21:25;20.50;99.90
25991;DHT22;13779;-33.886;151.198;2023-01-23T15:26:59;20.60;99.90
25991;DHT22;13779;-33.886;151.198;2023-01-23T15:29:31;20.60;99.90
25991;DHT22;13779;-33.886;151.198;2023-01-23T15:32:02;20.60;99.90
25991;DHT22;13779;-33.886;151.198;2023-01-23T15:34:32;20.60;99.90
25991;DHT22;13779;-33.886;151.198;2023-01-23T15:37:05;20.70;99.90
25991;DHT22;13779;-33.886;151.198;2023-01-23T15:39:48;20.80;99.90
25991;DHT22;13779;-33.886;151.198;2023-01-23T15:44:51;20.70;99.90
25991;DHT22;13779;-33.886;151.198;2023-01-23T15:47:21;20.70;99.90
25991;DHT22;13779;-33.886;151.198;2023-01-23T15:49:51;20.70;99.90
25991;DHT22;13779;-33.886;151.198;2023-01-23T15:52:22;20.60;99.90
25991;DHT22;13779;-33.886;151.198;2023-01-23T15:55:02;20.60;99.90
25991;DHT22;13779;-33.886;151.198;2023-01-23T15:57:33;20.60;99.90
25991;DHT22;13779;-33.886;151.198;2023-01-23T16:02:44;20.60;99.90
25991;DHT22;13779;-33.886;151.198;2023-01-23T16:05:26;20.70;99.90
25991;DHT22;13779;-33.886;151.198;2023-01-23T16:07:56;20.70;99.90
25991;DHT22;13779;-33.886;151.198;2023-01-23T16:10:35;20.50;99.90
25991;DHT22;13779;-33.886;151.198;2023-01-23T16:13:05;20.50;99.90
25991;DHT22;13779;-33.886;151.198;2023-01-23T16:15:35;20.40;99.90
25991;DHT22;13779;-33.886;151.198;2023-01-23T16:18:08;20.30;99.90
25991;DHT22;13779;-33.886;151.198;2023-01-23T16:20:38;20.30;99.90
25991;DHT22;13779;-33.886;151.198;2023-01-23T16:23:11;20.30;99.90
25991;DHT22;13779;-33.886;151.198;2023-01-23T16:25:42;20.30;99.90
25991;DHT22;13779;-33.886;151.198;2023-01-23T16:28:30;20.20;99.90
25991;DHT22;13779;-33.886;151.198;2023-01-23T16:31:00;20.30;99.90
25991;DHT22;13779;-33.886;151.198;2023-01-23T16:33:30;20.20;99.90
25991;DHT22;13779;-33.886;151.198;2023-01-23T16:35:59;20.20;99.90
25991;DHT22;13779;-33.886;151.198;2023-01-23T16:38:29;20.20;99.90
25991;DHT22;13779;-33.886;151.198;2023-01-23T16:40:59;20.20;99.90
25991;DHT22;13779;-33.886;151.198;2023-01-23T16:43:29;20.20;99.90
25991;DHT22;13779;-33.886;151.198;2023-01-23T16:46:01;20.20;99.90
25991;DHT22;13779;-33.886;151.198;2023-01-23T16:48:30;20.20;99.90
25991;DHT22;13779;-33.886;151.198;2023-01-23T16:51:04;20.20;99.90
25991;DHT22;13779;-33.886;151.198;2023-01-23T16:53:36;20.10;99.90
25991;DHT22;13779;-33.886;151.198;2023-01-23T16:56:06;20.20;99.90
25991;DHT22;13779;-33.886;151.198;2023-01-23T16:58:43;20.20;99.90
25991;DHT22;13779;-33.886;151.198;2023-01-23T17:01:13;20.10;99.90
25991;DHT22;13779;-33.886;151.198;2023-01-23T17:03:44;20.00;99.90
25991;DHT22;13779;-33.886;151.198;2023-01-23T17:06:16;20.00;99.90
25991;DHT22;13779;-33.886;151.198;2023-01-23T17:08:45;20.00;99.90
25991;DHT22;13779;-33.886;151.198;2023-01-23T17:11:19;20.00;99.90
25991;DHT22;13779;-33.886;151.198;2023-01-23T17:14:13;19.90;99.90
25991;DHT22;13779;-33.886;151.198;2023-01-23T17:16:39;19.90;99.90